Venez Explorer Les Airs Avec Nous!

Que ce soit pour un vol de découverte, pour apprendre l’arts du pilotage ou pour voyager, venez nous rejoindre.

Information en heures locale pour LFDL
27 February 2020

Metar
LFBI 270600Z AUTO 19019KT 7000 BKN007 OVC012 07/07 Q1003 TEMPO 22020G35KT 2000 RA OVC004

Lever du soleil aéronautique : 07:15

Lever du soleil : 07:45

Coucher du soleil : 18:39

Coucher du soleil aéronautique : 19:09

Actualité

Nous sommes heureux d'accueillir un ULM Savannah au sein de notre flotte. Grace à cet appareil, vous pourrez découvrir une …
Bienvenue à tous, l' Aéroclub Loudunais vous accueille sur son nouveau site internet.

Newsletter Sign Up

Praesent libero sed cursus anted dapibus diam
Fermer le menu